Terminal Aerodrome Forecast
Issued by NWS

Home | Current Version | Previous Version | Text Only | Print | Product List | Glossary Off
Versions: 1 2 3 4 5 6 7 8 9 10 11 12 13 14 15

000
FTUS43 KGRB 211129
TAFATW
TAF
KATW 211129Z 2112/2212 26006KT P6SM FEW120 SCT200
     FM211500 27011KT P6SM SCT070 BKN200
     FM212200 33006KT P6SM -SHRA BKN070 BKN120
     FM220200 03006KT P6SM SKC=

USA.gov is the U.S. government's official web portal to all federal, state and local government web resources and services.